Time;durP1;ratioP1;P1;durP2;ratioP2;P2;SDS_P1;SDS_P2;PMS_P1;PMS_P2;Temp;Humidity;BMP_temperature;BMP_pressure;BME280_temperature;BME280_humidity;BME280_pressure;Samples;Min_cycle;Max_cycle;Signal;HPM_P1;HPM_P2
2023/12/19 00:01:50;;;;;;;9.20;7.20;;;;;;;13.26;49.91;102564.33;110587;1274;22138;-55
2023/12/19 00:04:16;;;;;;;8.90;7.60;;;;;;;13.30;49.95;102565.17;110596;1274;22823;-55
2023/12/19 00:06:43;;;;;;;10.20;8.40;;;;;;;13.34;49.83;102568.48;110448;1274;22282;-54
2023/12/19 00:09:11;;;;;;;8.80;7.90;;;;;;;13.36;49.78;102568.64;110145;1274;22289;-54
2023/12/19 00:11:38;;;;;;;9.30;8.30;;;;;;;13.37;49.67;102564.28;109825;1271;1002532;-55
2023/12/19 00:14:06;;;;;;;10.50;9.00;;;;;;;13.38;49.75;102570.38;110620;1269;22196;-55
2023/12/19 00:16:33;;;;;;;10.20;8.60;;;;;;;13.41;49.64;102569.13;110564;1274;22153;-55
2023/12/19 00:19:00;;;;;;;10.90;8.70;;;;;;;13.45;49.58;102574.34;110442;1270;22817;-55
2023/12/19 00:21:27;;;;;;;9.20;8.30;;;;;;;13.48;49.48;102575.37;110598;1275;22450;-54
2023/12/19 00:23:54;;;;;;;11.10;9.20;;;;;;;13.48;49.39;102572.05;110607;1274;22155;-55
2023/12/19 00:26:24;;;;;;;9.30;8.40;;;;;;;13.49;49.38;102568.77;110603;1267;22145;-54
2023/12/19 00:28:50;;;;;;;9.60;8.20;;;;;;;13.47;49.41;102569.45;110631;1256;23025;-54
2023/12/19 00:31:19;;;;;;;10.00;8.70;;;;;;;13.44;49.39;102570.16;110638;1256;22126;-55
2023/12/19 00:33:46;;;;;;;10.80;8.80;;;;;;;13.38;49.47;102570.90;110643;1256;22282;-55
2023/12/19 00:36:20;;;;;;;9.70;8.50;;;;;;;13.33;49.60;102568.48;110668;1256;22208;-55
2023/12/19 00:38:47;;;;;;;10.30;8.40;;;;;;;13.30;49.69;102570.23;110645;1256;22366;-54
2023/12/19 00:41:15;;;;;;;9.60;8.50;;;;;;;13.26;49.78;102566.41;110640;1260;22937;-54
2023/12/19 00:43:43;;;;;;;10.60;8.70;;;;;;;13.21;49.93;102566.78;110593;1267;22099;-54
2023/12/19 00:46:09;;;;;;;12.70;8.80;;;;;;;13.17;49.96;102567.84;110434;1259;22424;-55
2023/12/19 00:48:36;;;;;;;10.00;8.60;;;;;;;13.15;50.06;102564.55;110620;1256;22313;-54
2023/12/19 00:51:12;;;;;;;10.10;8.50;;;;;;;13.14;50.18;102561.06;110613;1263;22388;-54
2023/12/19 00:53:39;;;;;;;10.10;8.20;;;;;;;13.12;50.21;102555.14;110633;1263;22475;-54
2023/12/19 00:56:07;;;;;;;9.20;8.30;;;;;;;13.10;50.29;102550.80;110447;1272;22586;-55
2023/12/19 00:58:36;;;;;;;9.10;8.20;;;;;;;13.08;50.34;102554.28;110480;1257;23015;-55
2023/12/19 01:01:04;;;;;;;11.20;9.00;;;;;;;13.05;50.44;102548.02;110733;1257;22180;-55
2023/12/19 01:03:31;;;;;;;10.00;8.60;;;;;;;13.03;50.42;102544.86;110583;1256;22327;-54
2023/12/19 01:06:00;;;;;;;9.70;8.40;;;;;;;13.00;50.59;102547.48;110634;1260;22186;-54
2023/12/19 01:08:27;;;;;;;10.60;8.90;;;;;;;12.98;50.66;102546.44;110370;1266;22119;-54
2023/12/19 01:10:54;;;;;;;10.10;8.20;;;;;;;12.96;50.59;102543.84;110447;1260;22344;-54
2023/12/19 01:13:21;;;;;;;10.60;9.10;;;;;;;12.93;50.72;102538.10;110580;1266;22332;-54
2023/12/19 01:15:49;;;;;;;11.80;8.80;;;;;;;12.90;50.77;102537.94;110433;1266;22362;-54
2023/12/19 01:18:16;;;;;;;10.40;9.20;;;;;;;12.89;50.82;102533.05;110642;1263;22305;-55
2023/12/19 01:20:44;;;;;;;10.50;9.40;;;;;;;12.90;50.82;102529.05;110645;1256;23324;-54
2023/12/19 01:23:11;;;;;;;10.30;8.70;;;;;;;12.90;50.80;102533.23;110680;1255;22831;-54
2023/12/19 01:25:39;;;;;;;10.60;9.50;;;;;;;12.88;50.78;102529.23;110610;1263;22455;-54
2023/12/19 01:28:06;;;;;;;10.30;9.20;;;;;;;12.86;50.84;102525.75;110638;1259;22349;-54
2023/12/19 01:30:38;;;;;;;11.50;10.30;;;;;;;12.86;50.86;102523.48;110595;1263;22252;-55
2023/12/19 01:33:07;;;;;;;10.90;9.70;;;;;;;12.87;50.94;102525.75;110611;1258;22152;-54
2023/12/19 01:35:34;;;;;;;11.10;10.00;;;;;;;12.87;50.98;102523.66;110635;1268;22136;-54
2023/12/19 01:38:01;;;;;;;12.00;10.10;;;;;;;12.84;50.88;102524.72;110626;1266;22210;-54
2023/12/19 01:40:31;;;;;;;10.50;9.40;;;;;;;12.82;51.00;102521.95;110662;1263;22121;-54
2023/12/19 01:42:58;;;;;;;11.20;9.20;;;;;;;12.82;50.97;102525.94;109844;1263;1002785;-54
2023/12/19 01:45:26;;;;;;;11.60;10.10;;;;;;;12.79;51.03;102524.39;109838;1255;1002262;-54
2023/12/19 01:47:52;;;;;;;10.60;9.50;;;;;;;12.76;51.19;102523.52;110645;1254;22714;-54
2023/12/19 01:50:19;;;;;;;10.50;9.20;;;;;;;12.75;51.21;102522.83;110664;1257;22150;-55
2023/12/19 01:52:49;;;;;;;10.50;9.40;;;;;;;12.71;51.27;102525.97;110632;1266;22495;-54
2023/12/19 01:55:15;;;;;;;11.10;9.90;;;;;;;12.70;51.38;102532.42;110648;1267;22270;-54
2023/12/19 01:57:43;;;;;;;11.50;9.40;;;;;;;12.70;51.45;102538.34;110253;1267;22387;-54
2023/12/19 02:00:13;;;;;;;12.40;10.30;;;;;;;12.73;51.42;102538.69;110379;1260;22534;-54
2023/12/19 02:02:43;;;;;;;12.30;9.70;;;;;;;12.77;51.47;102537.45;110427;1263;23003;-55
2023/12/19 02:05:14;;;;;;;11.10;9.90;;;;;;;12.82;51.30;102542.30;110080;1271;22354;-54
2023/12/19 02:07:41;;;;;;;15.60;10.70;;;;;;;12.87;51.12;102547.70;110300;1260;22188;-54
2023/12/19 02:10:08;;;;;;;10.70;9.50;;;;;;;12.92;51.04;102543.50;110391;1260;22125;-54
2023/12/19 02:12:35;;;;;;;10.70;9.60;;;;;;;12.95;50.95;102547.49;110136;1266;22322;-54
2023/12/19 02:15:02;;;;;;;11.50;9.70;;;;;;;12.97;50.80;102545.92;110395;1260;22159;-54
2023/12/19 02:17:29;;;;;;;11.50;9.90;;;;;;;13.00;50.73;102549.05;110252;1267;23149;-54
2023/12/19 02:19:56;;;;;;;10.90;9.70;;;;;;;13.02;50.78;102552.19;109646;1260;1006259;-54
2023/12/19 02:22:23;;;;;;;10.60;9.50;;;;;;;13.04;50.77;102558.46;110403;1269;22377;-54
2023/12/19 02:24:50;;;;;;;10.80;9.70;;;;;;;13.04;50.68;102555.85;110356;1260;22397;-54
2023/12/19 02:27:20;;;;;;;11.40;9.70;;;;;;;13.05;50.60;102556.90;110131;1261;22426;-54
2023/12/19 02:29:47;;;;;;;12.80;10.00;;;;;;;13.06;50.65;102550.64;110300;1266;22443;-54
2023/12/19 02:32:14;;;;;;;10.50;9.20;;;;;;;13.07;50.61;102545.73;110465;1257;23191;-55
2023/12/19 02:34:41;;;;;;;11.90;10.50;;;;;;;13.10;50.52;102548.02;110489;1258;22195;-54
2023/12/19 02:37:08;;;;;;;11.10;9.90;;;;;;;13.11;50.43;102551.14;110476;1257;22452;-54
2023/12/19 02:39:34;;;;;;;11.40;9.80;;;;;;;13.13;50.35;102549.75;110492;1256;22488;-54
2023/12/19 02:42:02;;;;;;;11.20;10.10;;;;;;;13.13;50.35;102549.91;110207;1261;22323;-54
2023/12/19 02:44:28;;;;;;;11.10;9.90;;;;;;;13.14;50.27;102549.20;110196;1263;22169;-54
2023/12/19 02:46:55;;;;;;;11.90;9.90;;;;;;;13.15;50.30;102548.34;110112;1266;22373;-54
2023/12/19 02:49:22;;;;;;;13.00;11.20;;;;;;;13.15;50.19;102544.69;110522;1254;22929;-54
2023/12/19 02:51:49;;;;;;;11.20;10.00;;;;;;;13.16;50.16;102543.81;110499;1267;22883;-54
2023/12/19 02:54:16;;;;;;;13.30;10.90;;;;;;;13.16;50.13;102540.15;110486;1266;22174;-56
2023/12/19 02:56:42;;;;;;;11.40;10.20;;;;;;;13.17;50.05;102541.38;110227;1265;22179;-54
2023/12/19 02:59:09;;;;;;;12.00;10.30;;;;;;;13.16;49.99;102541.36;110474;1257;22325;-54
2023/12/19 03:01:35;;;;;;;12.90;10.30;;;;;;;13.15;49.93;102539.27;110602;1266;22229;-54
2023/12/19 03:04:02;;;;;;;11.60;10.30;;;;;;;13.13;49.82;102535.98;109730;1254;1003032;-54
2023/12/19 03:06:30;;;;;;;10.80;9.50;;;;;;;13.12;49.83;102538.41;110617;1263;22447;-54
2023/12/19 03:08:57;;;;;;;14.20;10.50;;;;;;;13.09;49.79;102542.60;110455;1257;22875;-54
2023/12/19 03:11:24;;;;;;;11.30;10.10;;;;;;;13.08;49.70;102544.17;110633;1266;22895;-54
2023/12/19 03:13:51;;;;;;;12.50;10.40;;;;;;;13.05;49.69;102548.02;110444;1268;22849;-54
2023/12/19 03:16:18;;;;;;;10.90;9.80;;;;;;;13.02;49.74;102545.54;110619;1263;22167;-54
2023/12/19 03:18:45;;;;;;;12.00;10.30;;;;;;;13.00;49.79;102543.83;110629;1251;22137;-54
2023/12/19 03:21:12;;;;;;;11.30;9.90;;;;;;;12.97;49.79;102550.09;110638;1257;22356;-54
2023/12/19 03:23:38;;;;;;;13.50;10.30;;;;;;;12.95;49.85;102552.55;110471;1266;22835;-54
2023/12/19 03:26:05;;;;;;;12.40;10.50;;;;;;;12.94;49.90;102556.56;110453;1267;22316;-54
2023/12/19 03:28:32;;;;;;;12.30;11.00;;;;;;;12.92;50.01;102560.23;110636;1251;22298;-54
2023/12/19 03:30:59;;;;;;;12.60;10.20;;;;;;;12.91;50.06;102556.39;109839;1256;1002379;-54
2023/12/19 03:33:26;;;;;;;10.70;9.50;;;;;;;12.91;50.25;102557.09;110694;1251;22929;-54
2023/12/19 03:35:52;;;;;;;12.60;10.00;;;;;;;12.92;50.32;102552.02;110427;1266;22161;-54
2023/12/19 03:38:19;;;;;;;11.20;10.10;;;;;;;12.92;50.36;102548.03;110565;1274;22321;-54
2023/12/19 03:40:46;;;;;;;11.80;10.50;;;;;;;12.93;50.41;102551.34;110559;1266;23101;-54
2023/12/19 03:43:13;;;;;;;11.00;9.80;;;;;;;12.94;50.41;102558.48;110625;1264;22252;-54
2023/12/19 03:45:40;;;;;;;12.60;11.30;;;;;;;12.94;50.46;102561.79;110653;1266;22420;-54
2023/12/19 03:48:07;;;;;;;13.30;11.40;;;;;;;12.95;50.58;102563.36;110649;1251;22143;-54
2023/12/19 03:50:34;;;;;;;12.00;10.60;;;;;;;12.96;50.56;102561.95;110628;1257;22132;-55
2023/12/19 03:53:01;;;;;;;13.70;11.50;;;;;;;12.99;50.55;102557.77;109848;1261;1002224;-55
2023/12/19 03:55:28;;;;;;;13.90;11.90;;;;;;;13.02;50.57;102557.05;110437;1257;22523;-54
2023/12/19 03:57:55;;;;;;;13.80;11.10;;;;;;;13.03;50.57;102549.75;110632;1251;22353;-54
2023/12/19 04:00:21;;;;;;;13.90;10.20;;;;;;;13.05;50.60;102553.24;109452;1258;1002668;-54
2023/12/19 04:02:48;;;;;;;11.40;10.20;;;;;;;13.07;50.62;102552.88;110537;1267;22501;-54
2023/12/19 04:05:15;;;;;;;13.40;11.40;;;;;;;13.08;50.50;102555.31;110626;1253;23089;-54
2023/12/19 04:07:42;;;;;;;12.10;10.90;;;;;;;13.10;50.47;102556.02;110635;1254;22766;-54
2023/12/19 04:10:09;;;;;;;11.70;10.10;;;;;;;13.11;50.50;102556.38;110448;1254;22124;-54
2023/12/19 04:12:35;;;;;;;12.40;10.50;;;;;;;13.12;50.40;102552.53;110606;1259;23002;-55
2023/12/19 04:15:02;;;;;;;11.60;9.90;;;;;;;13.13;50.33;102548.86;110494;1269;22443;-55
2023/12/19 04:17:29;;;;;;;11.00;9.90;;;;;;;13.13;50.35;102543.98;110617;1260;22434;-54
2023/12/19 04:19:56;;;;;;;10.60;9.50;;;;;;;13.14;50.36;102549.73;110700;1263;23090;-54
2023/12/19 04:22:23;;;;;;;11.00;9.60;;;;;;;13.15;50.29;102547.47;110590;1264;22171;-54
2023/12/19 04:24:49;;;;;;;11.00;9.90;;;;;;;13.16;50.34;102547.30;110641;1261;22133;-54
2023/12/19 04:27:16;;;;;;;11.80;10.30;;;;;;;13.16;50.29;102547.98;110688;1251;22359;-54
2023/12/19 04:29:45;;;;;;;11.90;9.70;;;;;;;13.17;50.34;102553.56;110676;1257;22092;-54
2023/12/19 04:32:13;;;;;;;11.40;10.20;;;;;;;13.17;50.33;102554.09;110663;1254;22912;-54
2023/12/19 04:34:40;;;;;;;11.80;10.00;;;;;;;13.18;50.28;102553.38;110625;1254;22272;-54
2023/12/19 04:37:07;;;;;;;11.10;10.00;;;;;;;13.19;50.33;102554.96;110640;1262;22132;-54
2023/12/19 04:39:33;;;;;;;12.20;10.30;;;;;;;13.19;50.29;102554.59;110579;1260;22833;-54
2023/12/19 04:42:00;;;;;;;12.90;11.40;;;;;;;13.20;50.30;102556.34;110622;1251;22455;-54
2023/12/19 04:44:28;;;;;;;11.60;10.40;;;;;;;13.21;50.36;102561.73;110656;1264;22326;-54
2023/12/19 04:46:55;;;;;;;11.20;10.00;;;;;;;13.21;50.34;102563.64;110646;1251;22201;-54
2023/12/19 04:49:22;;;;;;;11.30;10.10;;;;;;;13.22;50.33;102564.17;110613;1253;22432;-54
2023/12/19 04:51:49;;;;;;;11.60;10.40;;;;;;;13.23;50.31;102564.00;110585;1263;22106;-54
2023/12/19 04:54:16;;;;;;;11.80;10.50;;;;;;;13.23;50.31;102560.84;110590;1263;22397;-54
2023/12/19 04:56:43;;;;;;;11.50;10.20;;;;;;;13.24;50.33;102564.15;110651;1256;22128;-54
2023/12/19 04:59:09;;;;;;;10.60;9.50;;;;;;;13.25;50.34;102567.29;110448;1262;22878;-54
2023/12/19 05:01:40;;;;;;;12.90;10.30;;;;;;;13.26;50.31;102570.42;110431;1254;22308;-54
2023/12/19 05:04:07;;;;;;;10.90;9.70;;;;;;;13.27;50.30;102570.08;110659;1251;22283;-54
2023/12/19 05:06:33;;;;;;;11.30;10.10;;;;;;;13.28;50.29;102570.23;110428;1257;22345;-54
2023/12/19 05:09:00;;;;;;;13.00;10.00;;;;;;;13.28;50.30;102569.54;110416;1267;22140;-54
2023/12/19 05:11:27;;;;;;;10.90;9.80;;;;;;;13.28;50.29;102565.19;110388;1258;22347;-54
2023/12/19 05:13:54;;;;;;;11.00;9.80;;;;;;;13.30;50.28;102574.08;110669;1261;22603;-54
2023/12/19 05:16:21;;;;;;;10.60;9.40;;;;;;;13.30;50.29;102577.55;109925;1254;1002899;-54
2023/12/19 05:18:48;;;;;;;10.80;9.00;;;;;;;13.31;50.29;102575.46;110639;1260;22278;-54
2023/12/19 05:21:16;;;;;;;10.40;9.40;;;;;;;13.32;50.27;102577.02;110585;1254;22355;-54
2023/12/19 05:23:43;;;;;;;11.60;10.30;;;;;;;13.32;50.12;102577.36;110648;1260;22302;-54
2023/12/19 05:26:09;;;;;;;13.10;10.40;;;;;;;13.32;50.22;102577.19;110455;1257;22230;-54
2023/12/19 05:28:38;;;;;;;11.00;9.80;;;;;;;13.31;50.17;102577.38;110675;1256;22178;-54
2023/12/19 05:31:05;;;;;;;11.60;10.40;;;;;;;13.31;50.20;102578.24;110653;1252;22208;-54
2023/12/19 05:33:33;;;;;;;11.40;9.80;;;;;;;13.32;50.22;102581.55;110580;1256;22221;-54
2023/12/19 05:36:00;;;;;;;12.10;10.40;;;;;;;13.32;50.34;102584.70;110626;1251;22265;-54
2023/12/19 05:38:27;;;;;;;12.60;10.10;;;;;;;13.32;50.25;102585.05;110652;1251;22315;-54
2023/12/19 05:40:57;;;;;;;11.40;9.80;;;;;;;13.32;50.30;102590.27;110606;1251;22364;-54
2023/12/19 05:43:24;;;;;;;10.20;9.20;;;;;;;13.33;50.39;102590.45;110659;1254;23041;-54
2023/12/19 05:45:51;;;;;;;12.30;10.20;;;;;;;13.34;50.39;102586.25;109889;1260;1002702;-54
2023/12/19 05:48:17;;;;;;;11.90;10.20;;;;;;;13.34;50.38;102586.77;110459;1263;22182;-54
2023/12/19 05:50:44;;;;;;;12.90;10.10;;;;;;;13.36;50.41;102584.85;110638;1250;22132;-54
2023/12/19 05:53:11;;;;;;;11.10;9.80;;;;;;;13.37;50.38;102583.63;110619;1256;22966;-54
2023/12/19 05:55:38;;;;;;;11.50;10.20;;;;;;;13.37;50.28;102584.15;110652;1250;23065;-55
2023/12/19 05:58:06;;;;;;;12.80;10.70;;;;;;;13.38;50.34;102586.07;110658;1263;23103;-54
2023/12/19 06:00:33;;;;;;;11.10;10.00;;;;;;;13.38;50.27;102586.06;110604;1263;22462;-54
2023/12/19 06:03:00;;;;;;;11.50;10.30;;;;;;;13.38;50.28;102583.27;110603;1264;23046;-54
2023/12/19 06:05:27;;;;;;;12.00;10.40;;;;;;;13.39;50.28;102589.71;110641;1263;22409;-54
2023/12/19 06:07:54;;;;;;;11.40;10.30;;;;;;;13.38;50.20;102586.23;109900;1261;1002646;-54
2023/12/19 06:10:23;;;;;;;10.90;9.70;;;;;;;13.39;50.19;102583.79;110207;1260;22125;-54
2023/12/19 06:12:50;;;;;;;11.80;9.90;;;;;;;13.40;50.23;102585.86;110641;1254;22367;-54
2023/12/19 06:15:17;;;;;;;11.30;10.10;;;;;;;13.41;50.23;102585.70;110642;1250;22177;-54
2023/12/19 06:17:43;;;;;;;11.50;9.70;;;;;;;13.43;50.17;102586.73;110441;1270;23025;-54
2023/12/19 06:20:10;;;;;;;11.80;9.90;;;;;;;13.44;50.15;102591.27;110414;1256;22127;-54
2023/12/19 06:22:39;;;;;;;10.50;9.20;;;;;;;13.45;50.13;102591.95;110645;1254;22380;-54
2023/12/19 06:25:06;;;;;;;10.10;9.10;;;;;;;13.47;50.12;102591.94;110440;1257;22337;-55
2023/12/19 06:27:34;;;;;;;11.50;9.50;;;;;;;13.48;50.07;102592.98;109882;1251;1006554;-54
2023/12/19 06:30:02;;;;;;;12.70;9.70;;;;;;;13.50;50.09;102593.67;110421;1253;22517;-54
2023/12/19 06:32:47;;;;;;;10.90;9.40;;;;;;;13.52;50.08;102592.63;110574;1256;22124;-54
2023/12/19 06:35:14;;;;;;;10.40;9.30;;;;;;;13.54;50.07;102595.06;109935;1254;1002407;-55
2023/12/19 06:37:40;;;;;;;12.00;9.40;;;;;;;13.55;50.09;102587.21;110594;1257;22092;-54
2023/12/19 06:40:08;;;;;;;10.40;9.30;;;;;;;13.57;50.05;102587.38;110593;1258;22913;-54
2023/12/19 06:42:35;;;;;;;11.20;9.40;;;;;;;13.59;50.05;102586.48;110670;1251;22153;-54
2023/12/19 06:45:02;;;;;;;12.10;10.70;;;;;;;13.61;50.09;102589.95;110435;1266;22284;-54
2023/12/19 06:47:29;;;;;;;11.50;10.30;;;;;;;13.63;50.04;102589.25;110452;1257;22256;-54
2023/12/19 06:49:56;;;;;;;12.50;10.90;;;;;;;13.66;50.01;102588.02;110653;1256;23147;-54
2023/12/19 06:52:23;;;;;;;13.10;11.70;;;;;;;13.68;49.92;102592.18;110646;1250;22418;-54
2023/12/19 06:54:50;;;;;;;13.00;11.50;;;;;;;13.70;49.84;102585.90;110620;1267;23059;-54
2023/12/19 06:57:17;;;;;;;10.90;9.80;;;;;;;13.71;49.72;102586.77;110615;1256;22483;-55
2023/12/19 06:59:44;;;;;;;12.90;10.40;;;;;;;13.72;49.69;102583.97;110497;1255;22201;-55
2023/12/19 07:02:11;;;;;;;10.70;9.40;;;;;;;13.73;49.64;102574.73;109822;1260;1002301;-55
2023/12/19 07:04:38;;;;;;;11.20;9.70;;;;;;;13.75;49.55;102569.83;110488;1269;22182;-54
2023/12/19 07:07:04;;;;;;;11.40;9.60;;;;;;;13.77;49.49;102562.48;110440;1263;22880;-54
2023/12/19 07:09:32;;;;;;;12.90;10.10;;;;;;;13.80;49.54;102559.67;109867;1257;1003287;-54
2023/12/19 07:11:59;;;;;;;11.40;10.20;;;;;;;13.83;49.51;102560.52;110166;1273;22257;-54
2023/12/19 07:14:25;;;;;;;12.10;10.20;;;;;;;13.87;49.54;102564.86;109886;1260;1002340;-54
2023/12/19 07:16:52;;;;;;;11.70;9.90;;;;;;;13.90;49.54;102571.46;110531;1257;22281;-54
2023/12/19 07:19:19;;;;;;;11.70;10.40;;;;;;;13.94;49.52;102575.44;110630;1254;23179;-54
2023/12/19 07:21:48;;;;;;;12.10;10.10;;;;;;;13.97;49.37;102578.77;110645;1256;22093;-55
2023/12/19 07:24:15;;;;;;;12.70;10.80;;;;;;;14.00;49.26;102579.79;110467;1266;22890;-54
2023/12/19 07:26:42;;;;;;;11.70;10.30;;;;;;;14.03;49.12;102578.89;110659;1259;22917;-55
2023/12/19 07:29:10;;;;;;;11.70;10.30;;;;;;;14.05;48.98;102571.90;110700;1254;22366;-54
2023/12/19 07:31:38;;;;;;;11.30;10.20;;;;;;;14.08;48.87;102572.05;110600;1250;22190;-54
2023/12/19 07:34:05;;;;;;;11.30;9.90;;;;;;;14.10;48.82;102576.56;110671;1250;22282;-54
2023/12/19 07:36:33;;;;;;;11.90;10.60;;;;;;;14.11;48.70;102577.25;110529;1269;22420;-55
2023/12/19 07:39:00;;;;;;;11.90;10.30;;;;;;;14.12;48.61;102575.67;110656;1251;22343;-54
2023/12/19 07:41:27;;;;;;;13.30;10.60;;;;;;;14.15;48.63;102575.48;110704;1262;22276;-54
2023/12/19 07:43:54;;;;;;;12.00;10.70;;;;;;;14.16;48.51;102573.02;110685;1253;22151;-54
2023/12/19 07:46:22;;;;;;;13.50;10.80;;;;;;;14.18;48.40;102575.27;110433;1262;22324;-54
2023/12/19 07:48:49;;;;;;;11.20;10.10;;;;;;;14.20;48.42;102575.27;110639;1256;23163;-55
2023/12/19 07:51:17;;;;;;;11.50;10.20;;;;;;;14.22;48.47;102577.70;110663;1264;22423;-55
2023/12/19 07:53:43;;;;;;;11.40;10.10;;;;;;;14.23;48.45;102574.02;110642;1251;22116;-54
2023/12/19 07:56:10;;;;;;;12.70;10.80;;;;;;;14.24;48.44;102571.40;110618;1255;22118;-54
2023/12/19 07:58:38;;;;;;;11.70;10.40;;;;;;;14.24;48.34;102570.00;110634;1255;22382;-54
2023/12/19 08:01:05;;;;;;;13.40;10.20;;;;;;;14.20;48.24;102564.80;109709;1254;1006405;-54
2023/12/19 08:03:33;;;;;;;11.00;9.90;;;;;;;14.18;48.29;102560.27;110642;1251;22428;-54
2023/12/19 08:06:00;;;;;;;12.40;11.20;;;;;;;14.17;48.37;102557.84;110598;1257;22118;-54
2023/12/19 08:08:27;;;;;;;13.50;10.90;;;;;;;14.18;48.41;102559.91;110667;1260;22285;-54
2023/12/19 08:10:55;;;;;;;11.40;9.90;;;;;;;14.21;48.44;102561.98;110670;1262;22146;-54
2023/12/19 08:13:21;;;;;;;10.10;9.00;;;;;;;14.23;48.36;102565.29;110685;1257;22187;-54
2023/12/19 08:15:49;;;;;;;10.20;9.20;;;;;;;14.24;48.34;102562.32;110580;1254;22321;-54
2023/12/19 08:18:16;;;;;;;11.90;10.00;;;;;;;14.26;48.42;102558.99;110650;1254;22295;-54
2023/12/19 08:20:43;;;;;;;10.90;9.40;;;;;;;14.29;48.35;102561.26;110616;1250;22791;-54
2023/12/19 08:23:10;;;;;;;11.20;9.40;;;;;;;14.32;48.44;102564.73;109977;1255;1002415;-54
2023/12/19 08:25:41;;;;;;;10.70;9.70;;;;;;;14.33;48.35;102561.92;110605;1250;23182;-54
2023/12/19 08:28:09;;;;;;;10.90;9.80;;;;;;;14.35;48.34;102564.52;110706;1254;23140;-54
2023/12/19 08:30:35;;;;;;;10.20;9.10;;;;;;;14.38;48.36;102555.59;110632;1251;22129;-54
2023/12/19 08:33:03;;;;;;;10.60;9.20;;;;;;;14.41;48.39;102549.64;110599;1266;22193;-54
2023/12/19 08:35:30;;;;;;;9.20;8.30;;;;;;;14.45;48.40;102543.84;110607;1250;23055;-54
2023/12/19 08:37:57;;;;;;;10.00;8.30;;;;;;;14.49;48.41;102538.90;110656;1250;22324;-54
2023/12/19 08:40:24;;;;;;;10.20;9.20;;;;;;;14.52;48.41;102535.55;110632;1251;22997;-54
2023/12/19 08:42:53;;;;;;;9.70;8.70;;;;;;;14.58;48.31;102535.33;110604;1266;22403;-54
2023/12/19 08:45:23;;;;;;;9.40;8.40;;;;;;;14.62;48.14;102530.91;110624;1256;22220;-54
2023/12/19 08:47:51;;;;;;;8.70;7.90;;;;;;;14.66;48.05;102529.47;110604;1254;22288;-54
2023/12/19 08:50:18;;;;;;;10.60;8.90;;;;;;;14.70;48.03;102522.79;110588;1274;22445;-54
2023/12/19 08:52:47;;;;;;;8.50;7.70;;;;;;;14.75;47.98;102522.91;110593;1251;22324;-54
2023/12/19 08:55:14;;;;;;;7.10;6.40;;;;;;;14.81;47.85;102526.87;110629;1262;22911;-54
2023/12/19 08:57:41;;;;;;;7.20;6.50;;;;;;;14.86;47.67;102526.82;110652;1258;22184;-54
2023/12/19 09:00:15;;;;;;;8.90;6.00;;;;;;;14.91;47.64;102523.09;110623;1254;22419;-55
2023/12/19 09:02:43;;;;;;;6.80;6.10;;;;;;;14.98;47.70;102521.95;110502;1268;22397;-56
2023/12/19 09:05:11;;;;;;;6.60;5.60;;;;;;;15.06;47.56;102519.24;110602;1274;22933;-54
2023/12/19 09:07:38;;;;;;;5.50;4.90;;;;;;;15.11;47.32;102510.77;110594;1274;23078;-54
2023/12/19 09:10:06;;;;;;;5.30;4.80;;;;;;;15.14;47.20;102508.63;110615;1260;22177;-54
2023/12/19 09:12:34;;;;;;;5.90;5.30;;;;;;;15.17;47.01;102501.43;110618;1251;23215;-54
2023/12/19 09:15:02;;;;;;;5.40;4.90;;;;;;;15.18;46.95;102500.54;110162;1274;22868;-54
2023/12/19 09:17:29;;;;;;;5.60;5.10;;;;;;;15.20;46.77;102495.45;110456;1266;22398;-55
2023/12/19 09:19:56;;;;;;;5.30;4.80;;;;;;;15.19;46.58;102494.06;110601;1266;23015;-54
2023/12/19 09:22:24;;;;;;;5.10;4.60;;;;;;;15.14;46.54;102494.48;110621;1274;22295;-55
2023/12/19 09:24:51;;;;;;;5.10;4.60;;;;;;;15.05;46.63;102486.55;110437;1270;22358;-55
2023/12/19 09:27:18;;;;;;;5.30;4.80;;;;;;;14.97;46.73;102475.48;110551;1274;23138;-54
2023/12/19 09:29:45;;;;;;;5.30;4.80;;;;;;;14.90;46.90;102466.48;110621;1254;22564;-54
2023/12/19 09:32:14;;;;;;;6.50;5.40;;;;;;;14.82;46.96;102465.35;110576;1253;22272;-55
2023/12/19 09:34:41;;;;;;;5.70;5.10;;;;;;;14.75;47.23;102457.39;110653;1253;22372;-54
2023/12/19 09:37:08;;;;;;;6.80;5.90;;;;;;;14.70;47.38;102454.67;110514;1265;22970;-54
2023/12/19 09:39:35;;;;;;;7.60;6.80;;;;;;;14.64;47.53;102453.52;110622;1250;22400;-54
2023/12/19 09:42:03;;;;;;;11.50;7.40;;;;;;;14.60;47.74;102456.18;110632;1260;23106;-54
2023/12/19 09:44:30;;;;;;;9.50;7.80;;;;;;;14.57;47.99;102461.11;110471;1269;22793;-54
2023/12/19 09:46:57;;;;;;;8.30;7.40;;;;;;;14.54;47.99;102461.66;110415;1272;22403;-55
2023/12/19 09:49:25;;;;;;;7.80;7.00;;;;;;;14.53;48.05;102457.48;110592;1270;23108;-54
2023/12/19 09:51:53;;;;;;;9.50;7.60;;;;;;;14.49;48.14;102448.63;110541;1268;22350;-54
2023/12/19 09:54:21;;;;;;;9.10;7.60;;;;;;;14.49;48.23;102436.75;110524;1267;22354;-55
2023/12/19 09:56:56;;;;;;;9.20;8.20;;;;;;;14.47;48.21;102437.64;110608;1266;22290;-55
2023/12/19 09:59:23;;;;;;;10.60;8.30;;;;;;;14.47;48.43;102436.25;110679;1263;22345;-55
2023/12/19 10:01:50;;;;;;;9.40;8.40;;;;;;;14.47;48.49;102429.95;110674;1250;23005;-54
2023/12/19 10:04:18;;;;;;;9.30;8.20;;;;;;;14.47;48.54;102421.59;109848;1266;1002613;-54
2023/12/19 10:06:58;;;;;;;9.50;7.90;;;;;;;14.46;48.58;102417.40;110655;1266;22133;-54
2023/12/19 10:09:25;;;;;;;8.70;7.80;;;;;;;14.46;48.65;102425.95;109849;1260;1002625;-54
2023/12/19 10:12:12;;;;;;;10.10;8.60;;;;;;;14.46;48.78;102418.27;110556;1268;22220;-54
2023/12/19 10:14:39;;;;;;;10.90;8.70;;;;;;;14.46;48.80;102413.04;110627;1257;22392;-54
2023/12/19 10:17:11;;;;;;;9.60;8.60;;;;;;;14.47;48.84;102416.16;110607;1266;22185;-54
2023/12/19 10:19:39;;;;;;;10.40;8.60;;;;;;;14.46;48.80;102404.83;110632;1266;22101;-54
2023/12/19 10:22:09;;;;;;;9.90;8.90;;;;;;;14.46;48.94;102405.01;110476;1257;22505;-55
2023/12/19 10:24:36;;;;;;;9.20;8.20;;;;;;;14.48;49.00;102404.61;110687;1250;23234;-55
2023/12/19 10:27:07;;;;;;;9.20;7.20;;;;;;;14.52;48.96;102400.22;110619;1260;23105;-54
2023/12/19 10:29:37;;;;;;;10.20;7.80;;;;;;;14.55;49.00;102398.95;110155;1274;22811;-54
2023/12/19 10:32:17;;;;;;;7.80;7.10;;;;;;;14.58;48.82;102391.23;110602;1260;22373;-54
2023/12/19 10:34:44;;;;;;;9.70;8.10;;;;;;;14.60;48.73;102381.26;110597;1266;22135;-54
2023/12/19 10:37:15;;;;;;;9.60;7.90;;;;;;;14.62;48.61;102379.13;109928;1254;1002585;-55
2023/12/19 10:39:45;;;;;;;14.60;9.00;;;;;;;14.63;48.46;102383.13;110587;1266;22214;-55
2023/12/19 10:42:12;;;;;;;11.30;8.80;;;;;;;14.65;48.64;102375.77;110423;1274;22166;-54
2023/12/19 10:44:42;;;;;;;8.20;7.40;;;;;;;14.66;48.62;102366.16;110697;1261;22372;-54
2023/12/19 10:47:12;;;;;;;9.50;8.00;;;;;;;14.67;48.59;102365.26;110595;1270;22830;-54
2023/12/19 10:49:39;;;;;;;11.30;9.30;;;;;;;14.71;48.48;102373.09;110622;1266;22303;-54
2023/12/19 10:52:08;;;;;;;12.10;9.60;;;;;;;14.73;48.43;102382.15;110611;1266;22319;-54
2023/12/19 10:54:35;;;;;;;9.70;8.70;;;;;;;14.74;48.61;102374.80;110575;1267;23218;-54
2023/12/19 10:57:15;;;;;;;10.20;8.70;;;;;;;14.77;48.63;102372.98;110579;1254;23068;-54
2023/12/19 10:59:58;;;;;;;10.70;8.60;;;;;;;14.80;48.65;102371.21;110608;1267;22455;-55
2023/12/19 11:02:43;;;;;;;9.40;7.80;;;;;;;14.82;48.61;102360.02;110601;1253;23280;-55
2023/12/19 11:05:19;;;;;;;7.70;6.90;;;;;;;14.84;48.44;102357.38;110601;1256;23121;-55
2023/12/19 11:07:46;;;;;;;12.60;9.90;;;;;;;14.85;48.38;102356.30;109855;1256;1002858;-54
2023/12/19 11:10:13;;;;;;;11.60;9.40;;;;;;;14.86;48.68;102364.50;110588;1263;22084;-54